Decoded Metar for LEBR (BARDENAS REALES in SPAIN) (IATA:N/A) | Meteo·Mobile Aviation Weather
aviador You're here:

LEBR Decoded Metar

BARDENAS REALES in SPAIN
Report Time2019-10-19 22:00:00
UTC Time2019-10-19 22:25:42
Flight Rules vfr VFR
Wind150° at 08 kt
Visibility9999 m
Phenomena:N/A
Clouds:N/A
Expected CloudBase > 4,000 ft AGL from Temp-Dew spread
CeilingNone
Temp20°C (ISA +7)
Dew Point10°C (53% RH)
AAT17.2°C
QNH1004 hPa
Density Alt2,251 ft
Elevation968 ft
Report Wrong Elevation
Raw Report
METAR LEBR 192200Z AUTO 15008KT 9999 NSC 20/10 Q1004=

Extra information for LEBR:More info

Airport Information Weather charts Add Link Nearby Venues Social comments